sensor_id;sensor_type;location;lat;lon;timestamp;P1;durP1;ratioP1;P2;durP2;ratioP2
23101;SDS011;11720;51.214;22.574;2022-09-09T00:01:50;4.75;;;1.65;;
23101;SDS011;11720;51.214;22.574;2022-09-09T00:04:37;2.28;;;1.77;;
23101;SDS011;11720;51.214;22.574;2022-09-09T00:12:22;2.00;;;1.65;;
23101;SDS011;11720;51.214;22.574;2022-09-09T00:15:13;2.55;;;1.60;;
23101;SDS011;11720;51.214;22.574;2022-09-09T00:28:22;2.63;;;1.92;;
23101;SDS011;11720;51.214;22.574;2022-09-09T00:30:50;2.55;;;1.08;;
23101;SDS011;11720;51.214;22.574;2022-09-09T00:33:17;1.80;;;1.65;;
23101;SDS011;11720;51.214;22.574;2022-09-09T00:35:48;2.03;;;1.65;;
23101;SDS011;11720;51.214;22.574;2022-09-09T00:38:36;1.48;;;1.27;;
23101;SDS011;11720;51.214;22.574;2022-09-09T00:41:22;2.13;;;1.75;;
23101;SDS011;11720;51.214;22.574;2022-09-09T00:47:17;2.20;;;1.92;;
23101;SDS011;11720;51.214;22.574;2022-09-09T00:52:40;1.48;;;1.38;;
23101;SDS011;11720;51.214;22.574;2022-09-09T00:55:21;1.20;;;1.10;;
23101;SDS011;11720;51.214;22.574;2022-09-09T00:57:57;1.42;;;0.88;;
23101;SDS011;11720;51.214;22.574;2022-09-09T01:07:58;2.78;;;1.33;;
23101;SDS011;11720;51.214;22.574;2022-09-09T01:10:48;1.83;;;1.60;;
23101;SDS011;11720;51.214;22.574;2022-09-09T01:13:25;1.52;;;1.42;;
23101;SDS011;11720;51.214;22.574;2022-09-09T01:15:55;2.85;;;1.60;;
23101;SDS011;11720;51.214;22.574;2022-09-09T01:18:26;1.95;;;1.75;;
23101;SDS011;11720;51.214;22.574;2022-09-09T01:21:04;2.28;;;1.20;;
23101;SDS011;11720;51.214;22.574;2022-09-09T01:26:37;3.67;;;1.90;;
23101;SDS011;11720;51.214;22.574;2022-09-09T01:29:11;3.30;;;1.83;;
23101;SDS011;11720;51.214;22.574;2022-09-09T01:31:40;6.45;;;1.85;;
23101;SDS011;11720;51.214;22.574;2022-09-09T01:34:18;2.60;;;1.98;;
23101;SDS011;11720;51.214;22.574;2022-09-09T01:39:29;4.00;;;2.47;;
23101;SDS011;11720;51.214;22.574;2022-09-09T01:41:55;1.63;;;1.45;;
23101;SDS011;11720;51.214;22.574;2022-09-09T01:44:21;2.20;;;1.70;;
23101;SDS011;11720;51.214;22.574;2022-09-09T01:46:48;2.40;;;1.88;;
23101;SDS011;11720;51.214;22.574;2022-09-09T01:49:13;2.95;;;1.67;;
23101;SDS011;11720;51.214;22.574;2022-09-09T01:51:40;1.83;;;1.58;;
23101;SDS011;11720;51.214;22.574;2022-09-09T01:54:08;2.08;;;1.50;;
23101;SDS011;11720;51.214;22.574;2022-09-09T02:03:14;4.18;;;1.63;;
23101;SDS011;11720;51.214;22.574;2022-09-09T02:07:50;2.10;;;1.92;;
23101;SDS011;11720;51.214;22.574;2022-09-09T02:13:21;5.70;;;2.97;;
23101;SDS011;11720;51.214;22.574;2022-09-09T02:18:45;2.80;;;2.22;;
23101;SDS011;11720;51.214;22.574;2022-09-09T02:21:16;1.95;;;1.63;;
23101;SDS011;11720;51.214;22.574;2022-09-09T02:23:43;3.08;;;2.35;;
23101;SDS011;11720;51.214;22.574;2022-09-09T02:26:12;6.75;;;2.38;;
23101;SDS011;11720;51.214;22.574;2022-09-09T02:28:44;1.95;;;1.42;;
23101;SDS011;11720;51.214;22.574;2022-09-09T02:31:13;1.25;;;1.15;;
23101;SDS011;11720;51.214;22.574;2022-09-09T02:33:43;3.30;;;1.90;;
23101;SDS011;11720;51.214;22.574;2022-09-09T02:36:12;2.40;;;2.17;;
23101;SDS011;11720;51.214;22.574;2022-09-09T02:38:42;2.67;;;1.63;;
23101;SDS011;11720;51.214;22.574;2022-09-09T02:41:15;2.25;;;2.03;;
23101;SDS011;11720;51.214;22.574;2022-09-09T02:43:46;3.58;;;2.50;;
23101;SDS011;11720;51.214;22.574;2022-09-09T02:49:03;1.92;;;1.70;;
23101;SDS011;11720;51.214;22.574;2022-09-09T02:54:44;2.20;;;2.00;;
23101;SDS011;11720;51.214;22.574;2022-09-09T02:57:24;2.83;;;1.65;;
23101;SDS011;11720;51.214;22.574;2022-09-09T02:59:52;2.72;;;1.63;;
23101;SDS011;11720;51.214;22.574;2022-09-09T03:02:21;4.05;;;2.38;;
23101;SDS011;11720;51.214;22.574;2022-09-09T03:04:47;2.80;;;1.75;;
23101;SDS011;11720;51.214;22.574;2022-09-09T03:07:16;4.18;;;2.22;;
23101;SDS011;11720;51.214;22.574;2022-09-09T03:09:43;1.60;;;1.50;;
23101;SDS011;11720;51.214;22.574;2022-09-09T03:12:09;2.30;;;1.80;;
23101;SDS011;11720;51.214;22.574;2022-09-09T03:14:36;3.65;;;2.28;;
23101;SDS011;11720;51.214;22.574;2022-09-09T03:17:03;6.13;;;2.25;;
23101;SDS011;11720;51.214;22.574;2022-09-09T03:19:29;1.48;;;1.20;;
23101;SDS011;11720;51.214;22.574;2022-09-09T03:21:55;2.72;;;1.90;;
23101;SDS011;11720;51.214;22.574;2022-09-09T03:24:21;2.42;;;1.42;;
23101;SDS011;11720;51.214;22.574;2022-09-09T03:26:47;1.85;;;1.70;;
23101;SDS011;11720;51.214;22.574;2022-09-09T03:29:15;1.75;;;1.63;;
23101;SDS011;11720;51.214;22.574;2022-09-09T03:31:43;2.90;;;2.63;;
23101;SDS011;11720;51.214;22.574;2022-09-09T03:34:09;1.77;;;1.67;;
23101;SDS011;11720;51.214;22.574;2022-09-09T03:36:36;2.10;;;1.60;;
23101;SDS011;11720;51.214;22.574;2022-09-09T03:39:02;3.85;;;1.52;;
23101;SDS011;11720;51.214;22.574;2022-09-09T03:41:28;1.77;;;1.65;;
23101;SDS011;11720;51.214;22.574;2022-09-09T03:43:54;3.10;;;1.55;;
23101;SDS011;11720;51.214;22.574;2022-09-09T03:46:20;3.63;;;1.55;;
23101;SDS011;11720;51.214;22.574;2022-09-09T03:48:47;2.97;;;2.03;;
23101;SDS011;11720;51.214;22.574;2022-09-09T03:51:13;2.95;;;2.22;;
23101;SDS011;11720;51.214;22.574;2022-09-09T03:53:39;1.45;;;1.33;;
23101;SDS011;11720;51.214;22.574;2022-09-09T03:56:05;1.60;;;1.50;;
23101;SDS011;11720;51.214;22.574;2022-09-09T03:58:32;2.60;;;1.95;;
23101;SDS011;11720;51.214;22.574;2022-09-09T04:01:02;1.70;;;1.45;;
23101;SDS011;11720;51.214;22.574;2022-09-09T04:03:30;2.30;;;2.00;;
23101;SDS011;11720;51.214;22.574;2022-09-09T04:05:57;2.25;;;2.00;;
23101;SDS011;11720;51.214;22.574;2022-09-09T04:08:24;3.03;;;1.92;;
23101;SDS011;11720;51.214;22.574;2022-09-09T04:10:51;2.47;;;2.20;;
23101;SDS011;11720;51.214;22.574;2022-09-09T04:13:17;2.00;;;1.83;;
23101;SDS011;11720;51.214;22.574;2022-09-09T04:15:48;1.90;;;1.52;;
23101;SDS011;11720;51.214;22.574;2022-09-09T04:18:20;3.53;;;2.17;;
23101;SDS011;11720;51.214;22.574;2022-09-09T04:20:47;2.17;;;1.60;;
23101;SDS011;11720;51.214;22.574;2022-09-09T04:23:13;2.40;;;1.75;;
23101;SDS011;11720;51.214;22.574;2022-09-09T04:25:43;2.92;;;2.03;;
23101;SDS011;11720;51.214;22.574;2022-09-09T04:28:13;3.05;;;2.08;;
23101;SDS011;11720;51.214;22.574;2022-09-09T04:30:40;1.67;;;1.58;;
23101;SDS011;11720;51.214;22.574;2022-09-09T04:33:06;3.20;;;1.77;;
23101;SDS011;11720;51.214;22.574;2022-09-09T04:35:32;3.63;;;1.85;;
23101;SDS011;11720;51.214;22.574;2022-09-09T04:37:58;1.75;;;1.63;;
23101;SDS011;11720;51.214;22.574;2022-09-09T04:40:24;1.63;;;1.52;;
23101;SDS011;11720;51.214;22.574;2022-09-09T04:42:50;2.25;;;1.70;;
23101;SDS011;11720;51.214;22.574;2022-09-09T04:45:16;2.05;;;1.83;;
23101;SDS011;11720;51.214;22.574;2022-09-09T04:47:43;1.48;;;1.38;;
23101;SDS011;11720;51.214;22.574;2022-09-09T04:50:09;1.65;;;1.55;;
23101;SDS011;11720;51.214;22.574;2022-09-09T04:52:34;5.05;;;2.72;;
23101;SDS011;11720;51.214;22.574;2022-09-09T04:55:01;2.38;;;1.95;;
23101;SDS011;11720;51.214;22.574;2022-09-09T04:57:27;2.85;;;1.58;;
23101;SDS011;11720;51.214;22.574;2022-09-09T04:59:53;2.30;;;1.52;;
23101;SDS011;11720;51.214;22.574;2022-09-09T05:02:19;5.93;;;2.20;;
23101;SDS011;11720;51.214;22.574;2022-09-09T05:04:45;2.58;;;1.73;;
23101;SDS011;11720;51.214;22.574;2022-09-09T05:07:10;1.73;;;1.55;;
23101;SDS011;11720;51.214;22.574;2022-09-09T05:09:36;3.83;;;3.28;;
23101;SDS011;11720;51.214;22.574;2022-09-09T05:12:01;1.67;;;1.55;;
23101;SDS011;11720;51.214;22.574;2022-09-09T05:14:28;3.53;;;2.20;;
23101;SDS011;11720;51.214;22.574;2022-09-09T05:16:54;2.65;;;2.33;;
23101;SDS011;11720;51.214;22.574;2022-09-09T05:19:21;1.88;;;1.50;;
23101;SDS011;11720;51.214;22.574;2022-09-09T05:21:46;2.30;;;2.08;;
23101;SDS011;11720;51.214;22.574;2022-09-09T05:24:12;2.50;;;2.30;;
23101;SDS011;11720;51.214;22.574;2022-09-09T05:26:38;4.65;;;2.75;;
23101;SDS011;11720;51.214;22.574;2022-09-09T05:29:04;4.28;;;2.22;;
23101;SDS011;11720;51.214;22.574;2022-09-09T05:31:30;2.45;;;1.85;;
23101;SDS011;11720;51.214;22.574;2022-09-09T05:33:57;2.50;;;1.83;;
23101;SDS011;11720;51.214;22.574;2022-09-09T05:36:24;3.10;;;1.98;;
23101;SDS011;11720;51.214;22.574;2022-09-09T05:38:50;1.83;;;1.42;;
23101;SDS011;11720;51.214;22.574;2022-09-09T05:41:18;1.70;;;1.60;;
23101;SDS011;11720;51.214;22.574;2022-09-09T05:43:45;2.95;;;2.08;;
23101;SDS011;11720;51.214;22.574;2022-09-09T05:46:12;1.77;;;1.45;;
23101;SDS011;11720;51.214;22.574;2022-09-09T05:48:40;3.03;;;1.55;;
23101;SDS011;11720;51.214;22.574;2022-09-09T05:51:11;1.83;;;1.52;;
23101;SDS011;11720;51.214;22.574;2022-09-09T05:53:40;2.97;;;2.30;;
23101;SDS011;11720;51.214;22.574;2022-09-09T05:56:13;4.38;;;1.60;;
23101;SDS011;11720;51.214;22.574;2022-09-09T05:58:42;2.08;;;1.30;;
23101;SDS011;11720;51.214;22.574;2022-09-09T06:01:17;4.60;;;2.40;;
23101;SDS011;11720;51.214;22.574;2022-09-09T06:03:45;3.35;;;2.00;;
23101;SDS011;11720;51.214;22.574;2022-09-09T06:06:13;1.63;;;1.50;;
23101;SDS011;11720;51.214;22.574;2022-09-09T06:08:41;1.90;;;1.52;;
23101;SDS011;11720;51.214;22.574;2022-09-09T06:11:12;1.75;;;1.63;;
23101;SDS011;11720;51.214;22.574;2022-09-09T06:13:39;2.70;;;2.28;;
23101;SDS011;11720;51.214;22.574;2022-09-09T06:16:09;1.42;;;1.33;;
23101;SDS011;11720;51.214;22.574;2022-09-09T06:18:36;2.08;;;1.88;;
23101;SDS011;11720;51.214;22.574;2022-09-09T06:21:07;2.65;;;1.40;;
23101;SDS011;11720;51.214;22.574;2022-09-09T06:23:38;1.33;;;1.23;;
23101;SDS011;11720;51.214;22.574;2022-09-09T06:26:16;1.67;;;1.58;;
23101;SDS011;11720;51.214;22.574;2022-09-09T06:28:50;2.42;;;1.52;;
23101;SDS011;11720;51.214;22.574;2022-09-09T06:31:18;1.88;;;1.70;;
23101;SDS011;11720;51.214;22.574;2022-09-09T06:33:51;1.95;;;1.40;;
23101;SDS011;11720;51.214;22.574;2022-09-09T06:36:19;4.18;;;1.80;;
23101;SDS011;11720;51.214;22.574;2022-09-09T06:38:46;1.50;;;1.40;;
23101;SDS011;11720;51.214;22.574;2022-09-09T06:41:13;1.75;;;1.33;;
23101;SDS011;11720;51.214;22.574;2022-09-09T06:43:40;2.58;;;1.80;;
23101;SDS011;11720;51.214;22.574;2022-09-09T06:48:48;2.50;;;2.30;;
23101;SDS011;11720;51.214;22.574;2022-09-09T06:51:21;2.20;;;1.80;;
23101;SDS011;11720;51.214;22.574;2022-09-09T06:53:50;1.77;;;1.67;;
23101;SDS011;11720;51.214;22.574;2022-09-09T06:56:30;1.88;;;1.60;;
23101;SDS011;11720;51.214;22.574;2022-09-09T06:59:00;2.20;;;2.00;;
23101;SDS011;11720;51.214;22.574;2022-09-09T07:01:32;1.48;;;1.25;;
23101;SDS011;11720;51.214;22.574;2022-09-09T07:04:00;2.00;;;1.63;;
23101;SDS011;11720;51.214;22.574;2022-09-09T07:06:30;3.63;;;1.75;;
23101;SDS011;11720;51.214;22.574;2022-09-09T07:08:58;2.28;;;1.80;;
23101;SDS011;11720;51.214;22.574;2022-09-09T07:11:29;2.28;;;1.42;;
23101;SDS011;11720;51.214;22.574;2022-09-09T07:13:58;1.88;;;1.50;;
23101;SDS011;11720;51.214;22.574;2022-09-09T07:16:24;3.97;;;1.75;;
23101;SDS011;11720;51.214;22.574;2022-09-09T07:18:52;2.42;;;1.83;;
23101;SDS011;11720;51.214;22.574;2022-09-09T07:21:22;4.20;;;2.90;;
23101;SDS011;11720;51.214;22.574;2022-09-09T07:23:49;9.65;;;2.53;;
23101;SDS011;11720;51.214;22.574;2022-09-09T07:26:17;3.10;;;2.75;;
23101;SDS011;11720;51.214;22.574;2022-09-09T07:28:44;2.15;;;1.95;;
23101;SDS011;11720;51.214;22.574;2022-09-09T07:31:14;1.63;;;1.52;;
23101;SDS011;11720;51.214;22.574;2022-09-09T07:33:42;2.10;;;1.95;;
23101;SDS011;11720;51.214;22.574;2022-09-09T07:36:16;5.13;;;2.63;;
23101;SDS011;11720;51.214;22.574;2022-09-09T07:38:47;4.25;;;1.77;;
23101;SDS011;11720;51.214;22.574;2022-09-09T07:41:16;3.00;;;2.05;;
23101;SDS011;11720;51.214;22.574;2022-09-09T07:43:47;2.85;;;2.33;;
23101;SDS011;11720;51.214;22.574;2022-09-09T07:46:14;2.03;;;1.88;;
23101;SDS011;11720;51.214;22.574;2022-09-09T07:48:44;3.67;;;2.00;;
23101;SDS011;11720;51.214;22.574;2022-09-09T07:51:12;4.05;;;2.35;;
23101;SDS011;11720;51.214;22.574;2022-09-09T07:53:44;3.38;;;2.30;;
23101;SDS011;11720;51.214;22.574;2022-09-09T07:56:15;4.93;;;2.33;;
23101;SDS011;11720;51.214;22.574;2022-09-09T07:58:44;3.72;;;2.83;;
23101;SDS011;11720;51.214;22.574;2022-09-09T08:01:13;6.43;;;2.25;;
23101;SDS011;11720;51.214;22.574;2022-09-09T08:03:40;2.28;;;1.77;;
23101;SDS011;11720;51.214;22.574;2022-09-09T08:06:07;2.08;;;1.58;;
23101;SDS011;11720;51.214;22.574;2022-09-09T08:08:34;6.28;;;2.78;;
23101;SDS011;11720;51.214;22.574;2022-09-09T08:11:11;2.75;;;2.10;;
23101;SDS011;11720;51.214;22.574;2022-09-09T08:13:40;3.22;;;2.30;;
23101;SDS011;11720;51.214;22.574;2022-09-09T08:16:11;6.07;;;2.85;;
23101;SDS011;11720;51.214;22.574;2022-09-09T08:18:38;2.50;;;2.30;;
23101;SDS011;11720;51.214;22.574;2022-09-09T08:21:08;4.68;;;2.58;;
23101;SDS011;11720;51.214;22.574;2022-09-09T08:23:39;2.72;;;2.25;;
23101;SDS011;11720;51.214;22.574;2022-09-09T08:26:10;3.13;;;2.13;;
23101;SDS011;11720;51.214;22.574;2022-09-09T08:29:03;1.90;;;1.80;;
23101;SDS011;11720;51.214;22.574;2022-09-09T08:31:31;3.17;;;2.40;;
23101;SDS011;11720;51.214;22.574;2022-09-09T08:34:02;3.83;;;2.70;;
23101;SDS011;11720;51.214;22.574;2022-09-09T08:36:30;3.83;;;3.03;;
23101;SDS011;11720;51.214;22.574;2022-09-09T08:39:01;3.47;;;2.08;;
23101;SDS011;11720;51.214;22.574;2022-09-09T08:47:07;3.80;;;2.75;;
23101;SDS011;11720;51.214;22.574;2022-09-09T08:50:00;2.60;;;2.40;;
23101;SDS011;11720;51.214;22.574;2022-09-09T08:52:39;3.95;;;2.22;;
23101;SDS011;11720;51.214;22.574;2022-09-09T08:58:02;5.95;;;3.17;;
23101;SDS011;11720;51.214;22.574;2022-09-09T09:03:43;3.85;;;2.65;;
23101;SDS011;11720;51.214;22.574;2022-09-09T09:11:53;5.30;;;3.20;;
23101;SDS011;11720;51.214;22.574;2022-09-09T09:14:26;2.30;;;2.10;;
23101;SDS011;11720;51.214;22.574;2022-09-09T09:17:05;4.18;;;2.60;;
23101;SDS011;11720;51.214;22.574;2022-09-09T09:19:34;3.88;;;2.45;;
23101;SDS011;11720;51.214;22.574;2022-09-09T09:22:10;5.55;;;3.08;;
23101;SDS011;11720;51.214;22.574;2022-09-09T09:30:00;3.67;;;2.38;;
23101;SDS011;11720;51.214;22.574;2022-09-09T09:32:51;2.30;;;2.08;;
23101;SDS011;11720;51.214;22.574;2022-09-09T09:35:18;5.70;;;3.38;;
23101;SDS011;11720;51.214;22.574;2022-09-09T09:37:44;3.85;;;2.78;;
23101;SDS011;11720;51.214;22.574;2022-09-09T09:40:14;3.55;;;2.65;;
23101;SDS011;11720;51.214;22.574;2022-09-09T09:42:58;4.82;;;3.53;;
23101;SDS011;11720;51.214;22.574;2022-09-09T09:48:09;2.45;;;2.25;;
23101;SDS011;11720;51.214;22.574;2022-09-09T09:50:39;2.85;;;2.58;;
23101;SDS011;11720;51.214;22.574;2022-09-09T09:53:19;4.00;;;2.38;;
23101;SDS011;11720;51.214;22.574;2022-09-09T09:55:50;2.95;;;1.92;;
23101;SDS011;11720;51.214;22.574;2022-09-09T09:58:23;3.22;;;2.95;;
23101;SDS011;11720;51.214;22.574;2022-09-09T10:00:50;3.97;;;2.63;;
23101;SDS011;11720;51.214;22.574;2022-09-09T10:03:20;5.15;;;3.13;;
23101;SDS011;11720;51.214;22.574;2022-09-09T10:05:48;2.47;;;2.28;;
23101;SDS011;11720;51.214;22.574;2022-09-09T10:08:14;3.25;;;1.95;;
23101;SDS011;11720;51.214;22.574;2022-09-09T10:26:26;4.32;;;2.88;;
23101;SDS011;11720;51.214;22.574;2022-09-09T10:29:05;2.42;;;2.22;;
23101;SDS011;11720;51.214;22.574;2022-09-09T10:34:39;4.18;;;2.65;;
23101;SDS011;11720;51.214;22.574;2022-09-09T10:42:51;3.75;;;2.90;;
23101;SDS011;11720;51.214;22.574;2022-09-09T10:45:36;8.43;;;3.05;;
23101;SDS011;11720;51.214;22.574;2022-09-09T10:49:15;4.60;;;2.60;;
23101;SDS011;11720;51.214;22.574;2022-09-09T10:54:03;4.80;;;2.95;;
23101;SDS011;11720;51.214;22.574;2022-09-09T10:56:49;4.10;;;3.15;;
23101;SDS011;11720;51.214;22.574;2022-09-09T10:59:22;5.18;;;3.20;;
23101;SDS011;11720;51.214;22.574;2022-09-09T11:01:53;3.78;;;3.13;;
23101;SDS011;11720;51.214;22.574;2022-09-09T11:04:45;4.35;;;3.53;;
23101;SDS011;11720;51.214;22.574;2022-09-09T11:10:23;3.28;;;2.67;;
23101;SDS011;11720;51.214;22.574;2022-09-09T11:13:02;4.20;;;3.53;;
23101;SDS011;11720;51.214;22.574;2022-09-09T11:15:41;4.68;;;3.03;;
23101;SDS011;11720;51.214;22.574;2022-09-09T11:18:16;4.30;;;3.35;;
23101;SDS011;11720;51.214;22.574;2022-09-09T11:20:48;5.45;;;2.63;;
23101;SDS011;11720;51.214;22.574;2022-09-09T11:23:27;3.92;;;3.55;;
23101;SDS011;11720;51.214;22.574;2022-09-09T11:26:05;5.28;;;3.20;;
23101;SDS011;11720;51.214;22.574;2022-09-09T11:28:56;7.68;;;2.92;;
23101;SDS011;11720;51.214;22.574;2022-09-09T11:31:38;5.57;;;3.15;;
23101;SDS011;11720;51.214;22.574;2022-09-09T11:37:23;7.15;;;3.75;;
23101;SDS011;11720;51.214;22.574;2022-09-09T11:40:08;6.68;;;3.17;;
23101;SDS011;11720;51.214;22.574;2022-09-09T11:42:45;7.72;;;3.47;;
23101;SDS011;11720;51.214;22.574;2022-09-09T11:45:22;10.57;;;4.78;;
23101;SDS011;11720;51.214;22.574;2022-09-09T11:47:52;5.20;;;3.90;;
23101;SDS011;11720;51.214;22.574;2022-09-09T11:52:45;4.25;;;3.33;;
23101;SDS011;11720;51.214;22.574;2022-09-09T11:55:27;4.82;;;3.45;;
23101;SDS011;11720;51.214;22.574;2022-09-09T12:00:37;3.47;;;2.80;;
23101;SDS011;11720;51.214;22.574;2022-09-09T12:03:09;5.35;;;3.08;;
23101;SDS011;11720;51.214;22.574;2022-09-09T12:06:09;5.40;;;3.70;;
23101;SDS011;11720;51.214;22.574;2022-09-09T12:08:53;7.95;;;3.58;;
23101;SDS011;11720;51.214;22.574;2022-09-09T12:11:27;4.00;;;2.97;;
23101;SDS011;11720;51.214;22.574;2022-09-09T12:13:57;6.40;;;4.47;;
23101;SDS011;11720;51.214;22.574;2022-09-09T12:19:15;7.35;;;4.07;;
23101;SDS011;11720;51.214;22.574;2022-09-09T12:29:53;8.02;;;3.97;;
23101;SDS011;11720;51.214;22.574;2022-09-09T12:32:27;3.05;;;2.72;;
23101;SDS011;11720;51.214;22.574;2022-09-09T12:34:55;3.95;;;2.90;;
23101;SDS011;11720;51.214;22.574;2022-09-09T12:40:30;4.15;;;3.65;;
23101;SDS011;11720;51.214;22.574;2022-09-09T12:43:00;5.60;;;4.00;;
23101;SDS011;11720;51.214;22.574;2022-09-09T12:45:46;3.70;;;2.60;;
23101;SDS011;11720;51.214;22.574;2022-09-09T12:48:15;8.45;;;3.65;;
23101;SDS011;11720;51.214;22.574;2022-09-09T12:50:48;5.88;;;3.38;;
23101;SDS011;11720;51.214;22.574;2022-09-09T12:53:20;6.35;;;3.60;;
23101;SDS011;11720;51.214;22.574;2022-09-09T12:55:51;7.53;;;5.35;;
23101;SDS011;11720;51.214;22.574;2022-09-09T12:58:24;6.70;;;4.50;;
23101;SDS011;11720;51.214;22.574;2022-09-09T13:00:53;4.40;;;2.85;;
23101;SDS011;11720;51.214;22.574;2022-09-09T13:03:23;7.57;;;4.68;;
23101;SDS011;11720;51.214;22.574;2022-09-09T13:05:50;5.63;;;3.42;;
23101;SDS011;11720;51.214;22.574;2022-09-09T13:08:16;8.05;;;3.90;;
23101;SDS011;11720;51.214;22.574;2022-09-09T13:11:01;7.55;;;3.85;;
23101;SDS011;11720;51.214;22.574;2022-09-09T13:13:34;3.45;;;2.78;;
23101;SDS011;11720;51.214;22.574;2022-09-09T13:16:03;6.43;;;4.65;;
23101;SDS011;11720;51.214;22.574;2022-09-09T13:18:33;9.52;;;3.58;;
23101;SDS011;11720;51.214;22.574;2022-09-09T13:21:01;6.63;;;3.65;;
23101;SDS011;11720;51.214;22.574;2022-09-09T13:23:28;6.60;;;4.68;;
23101;SDS011;11720;51.214;22.574;2022-09-09T13:25:59;6.63;;;4.05;;
23101;SDS011;11720;51.214;22.574;2022-09-09T13:28:27;7.88;;;3.95;;
23101;SDS011;11720;51.214;22.574;2022-09-09T13:31:01;4.85;;;3.97;;
23101;SDS011;11720;51.214;22.574;2022-09-09T13:33:36;6.65;;;3.53;;
23101;SDS011;11720;51.214;22.574;2022-09-09T13:36:09;6.05;;;3.00;;
23101;SDS011;11720;51.214;22.574;2022-09-09T13:38:55;5.82;;;4.25;;
23101;SDS011;11720;51.214;22.574;2022-09-09T13:44:35;5.15;;;3.20;;
23101;SDS011;11720;51.214;22.574;2022-09-09T13:47:04;5.05;;;3.53;;
23101;SDS011;11720;51.214;22.574;2022-09-09T13:49:42;7.00;;;3.80;;
23101;SDS011;11720;51.214;22.574;2022-09-09T13:52:11;9.40;;;3.80;;
23101;SDS011;11720;51.214;22.574;2022-09-09T13:54:39;8.40;;;3.90;;
23101;SDS011;11720;51.214;22.574;2022-09-09T13:57:05;6.28;;;3.08;;
23101;SDS011;11720;51.214;22.574;2022-09-09T13:59:38;3.90;;;3.22;;
23101;SDS011;11720;51.214;22.574;2022-09-09T14:02:05;6.35;;;3.10;;
23101;SDS011;11720;51.214;22.574;2022-09-09T14:04:31;6.00;;;4.05;;
23101;SDS011;11720;51.214;22.574;2022-09-09T14:06:58;5.55;;;3.85;;
23101;SDS011;11720;51.214;22.574;2022-09-09T14:09:24;5.20;;;3.47;;
23101;SDS011;11720;51.214;22.574;2022-09-09T14:11:50;4.25;;;3.53;;
23101;SDS011;11720;51.214;22.574;2022-09-09T14:14:16;10.13;;;4.82;;
23101;SDS011;11720;51.214;22.574;2022-09-09T14:16:42;6.65;;;3.20;;
23101;SDS011;11720;51.214;22.574;2022-09-09T14:19:08;9.98;;;4.63;;
23101;SDS011;11720;51.214;22.574;2022-09-09T14:21:34;8.82;;;4.50;;
23101;SDS011;11720;51.214;22.574;2022-09-09T14:24:00;8.57;;;4.93;;
23101;SDS011;11720;51.214;22.574;2022-09-09T14:26:25;8.82;;;3.95;;
23101;SDS011;11720;51.214;22.574;2022-09-09T14:28:51;7.28;;;3.40;;
23101;SDS011;11720;51.214;22.574;2022-09-09T14:31:17;6.15;;;4.30;;
23101;SDS011;11720;51.214;22.574;2022-09-09T14:33:43;5.05;;;3.92;;
23101;SDS011;11720;51.214;22.574;2022-09-09T14:36:10;7.15;;;3.80;;
23101;SDS011;11720;51.214;22.574;2022-09-09T14:38:37;5.47;;;4.07;;
23101;SDS011;11720;51.214;22.574;2022-09-09T14:41:04;8.50;;;4.15;;
23101;SDS011;11720;51.214;22.574;2022-09-09T14:43:31;5.35;;;3.83;;
23101;SDS011;11720;51.214;22.574;2022-09-09T14:45:57;8.50;;;4.45;;
23101;SDS011;11720;51.214;22.574;2022-09-09T14:48:30;5.43;;;3.47;;
23101;SDS011;11720;51.214;22.574;2022-09-09T14:50:56;5.57;;;4.00;;
23101;SDS011;11720;51.214;22.574;2022-09-09T14:53:22;6.03;;;3.67;;
23101;SDS011;11720;51.214;22.574;2022-09-09T14:55:48;4.82;;;3.63;;
23101;SDS011;11720;51.214;22.574;2022-09-09T14:58:14;4.72;;;3.30;;
23101;SDS011;11720;51.214;22.574;2022-09-09T15:00:39;5.03;;;2.80;;
23101;SDS011;11720;51.214;22.574;2022-09-09T15:03:06;4.18;;;3.40;;
23101;SDS011;11720;51.214;22.574;2022-09-09T15:05:31;3.70;;;3.28;;
23101;SDS011;11720;51.214;22.574;2022-09-09T15:07:57;4.97;;;3.15;;
23101;SDS011;11720;51.214;22.574;2022-09-09T15:10:23;7.60;;;4.07;;
23101;SDS011;11720;51.214;22.574;2022-09-09T15:12:49;5.55;;;3.22;;
23101;SDS011;11720;51.214;22.574;2022-09-09T15:15:15;6.57;;;4.13;;
23101;SDS011;11720;51.214;22.574;2022-09-09T15:17:40;6.18;;;4.22;;
23101;SDS011;11720;51.214;22.574;2022-09-09T15:20:06;6.03;;;3.70;;
23101;SDS011;11720;51.214;22.574;2022-09-09T15:22:32;5.53;;;3.70;;
23101;SDS011;11720;51.214;22.574;2022-09-09T15:24:58;7.03;;;3.47;;
23101;SDS011;11720;51.214;22.574;2022-09-09T15:27:24;4.88;;;3.20;;
23101;SDS011;11720;51.214;22.574;2022-09-09T15:29:50;6.97;;;4.50;;
23101;SDS011;11720;51.214;22.574;2022-09-09T15:32:16;6.07;;;3.83;;
23101;SDS011;11720;51.214;22.574;2022-09-09T15:34:42;6.78;;;4.75;;
23101;SDS011;11720;51.214;22.574;2022-09-09T15:37:09;10.00;;;5.28;;
23101;SDS011;11720;51.214;22.574;2022-09-09T15:39:38;5.47;;;4.10;;
23101;SDS011;11720;51.214;22.574;2022-09-09T15:42:04;7.28;;;4.85;;
23101;SDS011;11720;51.214;22.574;2022-09-09T15:44:29;6.03;;;3.97;;
23101;SDS011;11720;51.214;22.574;2022-09-09T15:47:03;7.18;;;4.25;;
23101;SDS011;11720;51.214;22.574;2022-09-09T15:49:29;9.82;;;4.80;;
23101;SDS011;11720;51.214;22.574;2022-09-09T15:51:56;9.93;;;5.00;;
23101;SDS011;11720;51.214;22.574;2022-09-09T15:54:23;8.60;;;5.00;;
23101;SDS011;11720;51.214;22.574;2022-09-09T15:56:58;5.55;;;4.03;;
23101;SDS011;11720;51.214;22.574;2022-09-09T15:59:26;9.50;;;5.68;;
23101;SDS011;11720;51.214;22.574;2022-09-09T16:01:53;7.90;;;4.10;;
23101;SDS011;11720;51.214;22.574;2022-09-09T16:04:19;7.57;;;4.70;;
23101;SDS011;11720;51.214;22.574;2022-09-09T16:06:53;7.45;;;4.30;;
23101;SDS011;11720;51.214;22.574;2022-09-09T16:09:21;5.45;;;3.92;;
23101;SDS011;11720;51.214;22.574;2022-09-09T16:11:47;8.48;;;5.20;;
23101;SDS011;11720;51.214;22.574;2022-09-09T16:14:13;4.80;;;3.38;;
23101;SDS011;11720;51.214;22.574;2022-09-09T16:16:40;7.28;;;4.75;;
23101;SDS011;11720;51.214;22.574;2022-09-09T16:19:07;6.85;;;4.20;;
23101;SDS011;11720;51.214;22.574;2022-09-09T16:21:37;5.75;;;4.50;;
23101;SDS011;11720;51.214;22.574;2022-09-09T16:24:08;7.45;;;4.13;;
23101;SDS011;11720;51.214;22.574;2022-09-09T16:26:36;7.05;;;5.00;;
23101;SDS011;11720;51.214;22.574;2022-09-09T16:29:04;7.50;;;4.68;;
23101;SDS011;11720;51.214;22.574;2022-09-09T16:31:30;8.27;;;5.03;;
23101;SDS011;11720;51.214;22.574;2022-09-09T16:33:59;7.50;;;5.80;;
23101;SDS011;11720;51.214;22.574;2022-09-09T16:36:27;6.68;;;4.10;;
23101;SDS011;11720;51.214;22.574;2022-09-09T16:38:56;9.07;;;5.38;;
23101;SDS011;11720;51.214;22.574;2022-09-09T16:41:26;7.20;;;4.18;;
23101;SDS011;11720;51.214;22.574;2022-09-09T16:43:54;11.20;;;5.43;;
23101;SDS011;11720;51.214;22.574;2022-09-09T16:46:21;12.10;;;5.30;;
23101;SDS011;11720;51.214;22.574;2022-09-09T16:48:49;5.55;;;4.80;;
23101;SDS011;11720;51.214;22.574;2022-09-09T16:51:20;7.25;;;5.40;;
23101;SDS011;11720;51.214;22.574;2022-09-09T16:53:49;11.98;;;5.75;;
23101;SDS011;11720;51.214;22.574;2022-09-09T16:56:16;12.25;;;6.57;;
23101;SDS011;11720;51.214;22.574;2022-09-09T16:58:44;11.02;;;6.35;;
23101;SDS011;11720;51.214;22.574;2022-09-09T17:01:21;10.88;;;6.22;;
23101;SDS011;11720;51.214;22.574;2022-09-09T17:03:51;9.27;;;6.03;;
23101;SDS011;11720;51.214;22.574;2022-09-09T17:06:18;8.50;;;5.95;;
23101;SDS011;11720;51.214;22.574;2022-09-09T17:08:44;9.73;;;4.85;;
23101;SDS011;11720;51.214;22.574;2022-09-09T17:11:11;7.57;;;6.03;;